Time;durP1;ratioP1;P1;durP2;ratioP2;P2;SDS_P1;SDS_P2;PMS_P1;PMS_P2;Temp;Humidity;BMP_temperature;BMP_pressure;BME280_temperature;BME280_humidity;BME280_pressure;Samples;Min_cycle;Max_cycle;Signal;HPM_P1;HPM_P2
2022/09/11 00:01:13;;;;;;;45.42;26.23;;;;;;;12.21;100.00;101735.88;5056279;28;20025;-73
2022/09/11 00:03:41;;;;;;;41.95;25.23;;;;;;;12.16;100.00;101733.31;5055477;28;20029;-73
2022/09/11 00:06:09;;;;;;;46.15;25.13;;;;;;;12.13;100.00;101736.88;5055869;28;20457;-73
2022/09/11 00:08:36;;;;;;;44.20;25.38;;;;;;;12.12;100.00;101734.28;5055443;28;20039;-73
2022/09/11 00:11:10;;;;;;;48.05;26.17;;;;;;;12.07;100.00;101725.66;5055133;28;20060;-73
2022/09/11 00:13:38;;;;;;;51.33;27.23;;;;;;;12.10;100.00;101728.22;5055456;28;20515;-73
2022/09/11 00:16:06;;;;;;;50.15;27.52;;;;;;;12.07;100.00;101733.50;5055689;28;20029;-73
2022/09/11 00:18:34;;;;;;;55.47;29.60;;;;;;;12.06;100.00;101737.84;5054680;28;20472;-73
2022/09/11 00:21:02;;;;;;;53.38;28.40;;;;;;;12.06;100.00;101729.13;5055487;28;20036;-73
2022/09/11 00:23:27;;;;;;;53.63;29.50;;;;;;;12.08;100.00;101737.81;5055153;28;20044;-73
2022/09/11 00:25:53;;;;;;;51.38;27.05;;;;;;;12.05;100.00;101727.41;5054846;28;20025;-73
2022/09/11 00:28:23;;;;;;;51.85;29.20;;;;;;;12.04;100.00;101730.94;5055212;28;20051;-73
2022/09/11 00:31:00;;;;;;;53.65;28.90;;;;;;;12.01;100.00;101738.81;5054145;28;20028;-73
2022/09/11 00:33:26;;;;;;;60.30;31.25;;;;;;;12.00;100.00;101744.91;5054318;28;20040;-73
2022/09/11 00:36:06;;;;;;;56.05;30.73;;;;;;;12.00;100.00;101745.81;5055202;28;20373;-73
2022/09/11 00:38:34;;;;;;;56.25;31.05;;;;;;;12.03;100.00;101753.56;5054776;28;20056;-73
2022/09/11 00:41:01;;;;;;;61.65;31.60;;;;;;;12.04;100.00;101746.63;5054540;28;20033;-73
2022/09/11 00:43:28;;;;;;;58.95;30.98;;;;;;;12.02;100.00;101744.00;5054785;28;20056;-73
2022/09/11 00:45:58;;;;;;;61.97;32.50;;;;;;;11.97;100.00;101750.19;5054398;28;20078;-73
2022/09/11 00:48:29;;;;;;;56.40;31.45;;;;;;;11.96;100.00;101751.94;5054651;28;20487;-73
2022/09/11 00:50:57;;;;;;;62.47;31.92;;;;;;;11.95;100.00;101752.81;5054898;28;20496;-73
2022/09/11 00:53:29;;;;;;;55.20;29.98;;;;;;;11.94;100.00;101751.09;5053917;28;20487;-73
2022/09/11 00:55:58;;;;;;;60.30;30.52;;;;;;;11.93;100.00;101752.88;5054880;28;20028;-73
2022/09/11 00:58:28;;;;;;;56.80;29.58;;;;;;;11.91;100.00;101757.25;5054681;28;20029;-73
2022/09/11 01:00:55;;;;;;;52.25;28.70;;;;;;;11.90;100.00;101749.41;5053886;28;20465;-73
2022/09/11 01:03:22;;;;;;;58.17;30.20;;;;;;;11.90;100.00;101752.00;5054680;28;20104;-73
2022/09/11 01:05:47;;;;;;;55.67;28.17;;;;;;;11.88;100.00;101754.66;5054784;28;20473;-73
2022/09/11 01:08:13;;;;;;;59.53;29.27;;;;;;;11.84;100.00;101754.72;5054341;28;20143;-73
2022/09/11 01:10:55;;;;;;;61.83;30.58;;;;;;;11.79;100.00;101773.03;5054348;28;20021;-73
2022/09/11 01:13:34;;;;;;;61.80;31.20;;;;;;;11.74;100.00;101769.66;5054242;28;20040;-73
2022/09/11 01:16:18;;;;;;;60.70;30.58;;;;;;;11.80;100.00;101774.75;5053952;28;20033;-73
2022/09/11 01:19:09;;;;;;;59.05;29.92;;;;;;;11.78;100.00;101766.09;5054861;28;20037;-73
2022/09/11 01:21:55;;;;;;;64.07;30.65;;;;;;;11.75;100.00;101770.50;5053315;28;20029;-73
2022/09/11 01:24:50;;;;;;;67.25;31.70;;;;;;;11.70;100.00;101760.97;5054333;28;20025;-73
2022/09/11 01:27:39;;;;;;;60.15;30.75;;;;;;;11.70;100.00;101763.56;5054147;28;20028;-73
2022/09/11 01:30:09;;;;;;;66.63;32.38;;;;;;;11.71;100.00;101759.25;5053383;28;20043;-73
2022/09/11 01:32:43;;;;;;;66.05;33.40;;;;;;;11.68;100.00;101760.13;5054046;28;20112;-73
2022/09/11 01:35:19;;;;;;;68.85;32.58;;;;;;;11.63;100.00;101764.53;5053687;28;20070;-73
2022/09/11 01:37:53;;;;;;;69.35;34.75;;;;;;;11.67;100.00;101765.38;5054184;28;20086;-73
2022/09/11 01:40:37;;;;;;;75.18;35.70;;;;;;;11.66;100.00;101761.03;5053829;28;20052;-73
2022/09/11 01:43:07;;;;;;;73.10;34.83;;;;;;;11.65;100.00;101765.41;5052911;28;20060;-73
2022/09/11 01:45:36;;;;;;;74.88;35.85;;;;;;;11.64;100.00;101770.63;5053824;28;20083;-73
2022/09/11 01:48:03;;;;;;;72.15;35.13;;;;;;;11.60;100.00;101772.41;5053988;28;20096;-73
2022/09/11 01:50:31;;;;;;;84.93;36.83;;;;;;;11.65;100.00;101775.84;5052723;28;20483;-73
2022/09/11 01:53:01;;;;;;;85.93;38.45;;;;;;;11.63;100.00;101779.34;5053769;28;20484;-73
2022/09/11 01:55:41;;;;;;;88.13;38.70;;;;;;;11.61;100.00;101771.56;5053767;28;20077;-73
2022/09/11 01:58:10;;;;;;;89.85;39.03;;;;;;;11.64;100.00;101773.25;5052977;28;20441;-73
2022/09/11 02:00:38;;;;;;;96.88;39.95;;;;;;;11.61;100.00;101775.91;5053481;28;20197;-73
2022/09/11 02:03:19;;;;;;;89.47;39.28;;;;;;;11.60;100.00;101776.78;5053650;28;20162;-73
2022/09/11 02:05:50;;;;;;;94.97;41.75;;;;;;;11.63;100.00;101774.13;5053858;28;20056;-73
2022/09/11 02:08:22;;;;;;;89.38;39.50;;;;;;;11.62;100.00;101778.50;5053344;28;20021;-73
2022/09/11 02:10:57;;;;;;;88.03;40.58;;;;;;;11.59;100.00;101783.75;5052815;28;20392;-73
2022/09/11 02:13:30;;;;;;;89.63;40.08;;;;;;;11.60;100.00;101784.63;5053155;28;20025;-73
2022/09/11 02:16:20;;;;;;;96.90;42.55;;;;;;;11.58;100.00;101789.00;5053362;28;20025;-73
2022/09/11 02:19:12;;;;;;;92.70;40.92;;;;;;;11.55;100.00;101784.69;5052513;28;20370;-73
2022/09/11 02:21:39;;;;;;;93.95;40.88;;;;;;;11.57;100.00;101782.03;5053055;28;20044;-73
2022/09/11 02:24:05;;;;;;;95.00;42.40;;;;;;;11.55;100.00;101784.69;5053267;28;20025;-73
2022/09/11 02:26:36;;;;;;;97.25;42.13;;;;;;;11.55;100.00;101796.88;5052358;28;20419;-73
2022/09/11 02:29:02;;;;;;;90.05;40.33;;;;;;;11.55;100.00;101799.50;5053430;28;20411;-73
2022/09/11 02:31:27;;;;;;;94.95;41.00;;;;;;;11.51;100.00;101790.84;5052295;28;20017;-73
2022/09/11 02:33:52;;;;;;;96.47;41.10;;;;;;;11.50;100.00;101791.69;5053244;28;20059;-73
2022/09/11 02:36:30;;;;;;;89.35;38.65;;;;;;;11.46;100.00;101788.25;5052786;28;20416;-73
2022/09/11 02:39:31;;;;;;;91.43;39.00;;;;;;;11.43;100.00;101795.28;5052412;28;20033;-73
2022/09/11 02:41:59;;;;;;;87.68;38.28;;;;;;;11.39;100.00;101799.66;5067673;28;20435;-74
2022/09/11 02:44:36;;;;;;;82.85;36.97;;;;;;;11.37;100.00;101793.59;5052568;28;20065;-73
2022/09/11 02:47:13;;;;;;;86.55;37.05;;;;;;;11.35;100.00;101799.75;5052052;28;20025;-73
2022/09/11 02:50:03;;;;;;;84.68;37.13;;;;;;;11.32;100.00;101795.41;5052686;28;20032;-73
2022/09/11 02:52:28;;;;;;;81.32;37.75;;;;;;;11.27;100.00;101799.81;5052107;28;20068;-73
2022/09/11 02:55:05;;;;;;;85.27;37.53;;;;;;;11.24;100.00;101800.69;5051932;28;20064;-73
2022/09/11 02:57:38;;;;;;;80.55;36.33;;;;;;;11.22;100.00;101801.63;5052305;28;20838;-73
2022/09/11 03:00:06;;;;;;;91.47;37.05;;;;;;;11.18;100.00;101808.63;5051904;28;20032;-73
2022/09/11 03:02:38;;;;;;;80.68;36.20;;;;;;;11.14;100.00;101801.69;5052488;28;20025;-73
2022/09/11 03:05:04;;;;;;;83.80;36.67;;;;;;;11.12;100.00;101794.78;5052791;28;20021;-73
2022/09/11 03:07:30;;;;;;;88.00;38.03;;;;;;;11.13;100.00;101802.56;5051494;28;20527;-73
2022/09/11 03:09:55;;;;;;;88.78;38.83;;;;;;;11.14;100.00;101816.47;5052391;28;20017;-73
2022/09/11 03:12:20;;;;;;;81.30;37.25;;;;;;;11.12;100.00;101808.69;5052220;28;20082;-73
2022/09/11 03:14:47;;;;;;;76.00;36.20;;;;;;;11.08;100.00;101808.69;5051790;28;20108;-73
2022/09/11 03:17:12;;;;;;;81.35;36.85;;;;;;;11.09;100.00;101815.69;5052587;28;20029;-73
2022/09/11 03:19:38;;;;;;;79.60;37.13;;;;;;;11.05;100.00;101817.41;5052277;28;20044;-73
2022/09/11 03:22:03;;;;;;;76.03;36.35;;;;;;;11.02;100.00;101813.13;5051886;28;20044;-73
2022/09/11 03:24:28;;;;;;;76.00;36.17;;;;;;;11.02;100.00;101815.72;5052037;28;20456;-73
2022/09/11 03:26:54;;;;;;;69.50;34.83;;;;;;;11.03;100.00;101806.16;5052708;28;20029;-73
2022/09/11 03:29:19;;;;;;;78.78;36.05;;;;;;;11.06;100.00;101805.25;5051495;28;20037;-73
2022/09/11 03:31:47;;;;;;;82.90;35.92;;;;;;;11.08;100.00;101809.56;5052522;28;20021;-73
2022/09/11 03:34:13;;;;;;;84.43;35.97;;;;;;;11.07;100.00;101804.38;5052567;28;20033;-73
2022/09/11 03:36:39;;;;;;;85.78;36.67;;;;;;;11.06;100.00;101811.34;5051448;28;20028;-73
2022/09/11 03:39:05;;;;;;;69.85;33.38;;;;;;;11.05;100.00;101816.56;5052191;28;20360;-73
2022/09/11 03:41:30;;;;;;;73.65;33.63;;;;;;;11.03;100.00;101821.81;5052220;28;20021;-73
2022/09/11 03:43:56;;;;;;;95.97;34.10;;;;;;;11.03;100.00;101819.19;5051481;28;20403;-73
2022/09/11 03:46:22;;;;;;;66.57;33.45;;;;;;;11.04;100.00;101815.69;5052242;28;20083;-73
2022/09/11 03:48:47;;;;;;;69.45;33.35;;;;;;;11.04;100.00;101817.44;5051683;28;20321;-73
2022/09/11 03:51:14;;;;;;;66.78;33.58;;;;;;;11.04;100.00;101822.66;5052237;28;20037;-73
2022/09/11 03:53:43;;;;;;;69.03;33.80;;;;;;;11.05;100.00;101824.38;5051864;28;20033;-73
2022/09/11 03:56:09;;;;;;;66.60;33.15;;;;;;;11.07;100.00;101823.50;5051642;28;20032;-73
2022/09/11 03:58:34;;;;;;;70.28;33.60;;;;;;;11.06;100.00;101818.31;5051890;28;20033;-73
2022/09/11 04:01:00;;;;;;;82.88;34.42;;;;;;;11.05;100.00;101814.81;5052309;28;20154;-73
2022/09/11 04:03:25;;;;;;;77.88;33.85;;;;;;;11.09;100.00;101813.06;5051191;28;20025;-73
2022/09/11 04:05:59;;;;;;;73.90;33.40;;;;;;;11.12;100.00;101813.03;5054493;28;20369;-73
2022/09/11 04:08:25;;;;;;;75.13;34.40;;;;;;;11.13;100.00;101812.16;5055446;28;20059;-73
2022/09/11 04:10:57;;;;;;;79.18;34.60;;;;;;;11.10;100.00;101813.03;5055160;28;20460;-73
2022/09/11 04:13:28;;;;;;;87.33;32.67;;;;;;;11.07;100.00;101818.28;5055586;28;20035;-73
2022/09/11 04:15:58;;;;;;;71.38;31.77;;;;;;;11.01;100.00;101813.97;5055804;28;20279;-73
2022/09/11 04:18:23;;;;;;;66.50;32.25;;;;;;;11.04;100.00;101807.88;5054693;28;20024;-73
2022/09/11 04:20:48;;;;;;;76.18;33.33;;;;;;;11.09;100.00;101819.16;5055536;28;20020;-73
2022/09/11 04:23:13;;;;;;;115.28;35.88;;;;;;;11.09;100.00;101815.69;5055723;28;20030;-73
2022/09/11 04:25:39;;;;;;;78.57;34.75;;;;;;;11.08;100.00;101816.53;5054683;28;20489;-73
2022/09/11 04:28:04;;;;;;;74.72;33.92;;;;;;;11.09;100.00;101811.31;5055520;28;20021;-73
2022/09/11 04:30:29;;;;;;;84.70;32.92;;;;;;;11.05;100.00;101806.97;5055098;28;20052;-73
2022/09/11 04:32:55;;;;;;;95.35;33.65;;;;;;;11.08;100.00;101819.13;5054681;28;20032;-73
2022/09/11 04:35:20;;;;;;;74.93;32.20;;;;;;;11.06;100.00;101811.34;5054834;28;20064;-73
2022/09/11 04:37:45;;;;;;;70.38;32.58;;;;;;;11.05;100.00;101812.19;5055512;28;20365;-73
2022/09/11 04:40:10;;;;;;;97.53;34.03;;;;;;;11.10;100.00;101820.88;5054734;28;20025;-73
2022/09/11 04:42:36;;;;;;;73.95;32.60;;;;;;;11.08;100.00;101820.00;5054638;28;20036;-74
2022/09/11 04:45:01;;;;;;;83.13;32.58;;;;;;;11.08;100.00;101816.53;5054665;28;20078;-73
2022/09/11 04:47:27;;;;;;;89.57;30.70;;;;;;;11.02;100.00;101820.94;5054727;28;20029;-73
2022/09/11 04:49:53;;;;;;;71.35;30.20;;;;;;;10.99;100.00;101830.56;5055156;28;20037;-73
2022/09/11 04:52:19;;;;;;;90.00;30.10;;;;;;;10.96;100.00;101830.59;5054284;28;20044;-73
2022/09/11 04:54:45;;;;;;;83.53;29.65;;;;;;;10.94;100.00;101832.31;5055093;28;20021;-73
2022/09/11 04:57:10;;;;;;;82.88;30.00;;;;;;;10.90;100.00;101841.06;5055043;28;20059;-73
2022/09/11 04:59:36;;;;;;;85.78;29.48;;;;;;;10.89;100.00;101844.53;5054000;28;20388;-74
2022/09/11 05:02:02;;;;;;;66.47;29.48;;;;;;;10.88;100.00;101838.44;5054994;28;20029;-73
2022/09/11 05:04:27;;;;;;;51.55;28.40;;;;;;;10.90;100.00;101830.63;5054458;28;20017;-73
2022/09/11 05:06:53;;;;;;;59.85;28.55;;;;;;;10.93;100.00;101826.25;5054140;28;20037;-73
2022/09/11 05:09:18;;;;;;;74.80;28.98;;;;;;;10.90;100.00;101823.66;5054282;28;20043;-73
2022/09/11 05:11:44;;;;;;;62.50;29.67;;;;;;;10.85;100.00;101835.88;5054840;28;20027;-73
2022/09/11 05:14:10;;;;;;;70.65;30.38;;;;;;;10.82;100.00;101833.28;5053914;28;20029;-73
2022/09/11 05:16:36;;;;;;;48.97;27.45;;;;;;;10.75;100.00;101844.66;5053581;28;20471;-73
2022/09/11 05:19:03;;;;;;;52.95;27.95;;;;;;;10.70;100.00;101852.53;5054448;28;20096;-73
2022/09/11 05:21:28;;;;;;;72.85;29.23;;;;;;;10.68;100.00;101853.41;5053592;28;20025;-73
2022/09/11 05:23:56;;;;;;;75.80;28.70;;;;;;;10.68;100.00;101856.03;5054808;28;20366;-73
2022/09/11 05:26:25;;;;;;;55.13;27.98;;;;;;;10.70;100.00;101868.19;5054086;28;20036;-73
2022/09/11 05:28:59;;;;;;;61.92;28.63;;;;;;;10.66;100.00;101869.09;5053542;28;20033;-73
2022/09/11 05:31:24;;;;;;;;;;;;;;;10.70;100.00;101870.78;5054405;28;20440;-73
2022/09/11 05:33:51;;;;;;;48.92;26.60;;;;;;;10.68;100.00;101882.09;5054191;28;19963;-73
2022/09/11 05:36:17;;;;;;;50.70;26.38;;;;;;;10.60;100.00;101886.53;5053164;28;20025;-73
2022/09/11 05:38:42;;;;;;;49.20;26.80;;;;;;;10.57;100.00;101891.75;5054289;28;20048;-73
2022/09/11 05:41:10;;;;;;;45.22;27.83;;;;;;;10.54;100.00;101900.47;5054232;28;20117;-73
2022/09/11 05:43:36;;;;;;;44.08;26.55;;;;;;;10.52;100.00;101895.22;5052919;28;20098;-73
2022/09/11 05:46:02;;;;;;;49.28;26.15;;;;;;;10.50;100.00;101898.75;5053950;28;20100;-73
2022/09/11 05:48:29;;;;;;;50.13;26.88;;;;;;;10.48;100.00;101896.13;5052858;28;20514;-73
2022/09/11 05:50:58;;;;;;;50.83;27.60;;;;;;;10.50;100.00;101903.97;5054039;28;20029;-73
2022/09/11 05:53:24;;;;;;;53.83;28.02;;;;;;;10.45;100.00;101900.50;5053695;28;20029;-73
2022/09/11 05:55:50;;;;;;;39.78;25.10;;;;;;;10.53;100.00;101907.41;5053145;28;20405;-73
2022/09/11 05:58:16;;;;;;;46.90;27.23;;;;;;;10.61;100.00;101912.56;5053497;28;20033;-73
2022/09/11 06:00:45;;;;;;;45.10;27.45;;;;;;;10.63;100.00;101915.19;5053635;28;20104;-73
2022/09/11 06:03:11;;;;;;;44.00;26.90;;;;;;;10.68;100.00;101921.22;5053124;28;20380;-73
2022/09/11 06:05:36;;;;;;;38.95;26.63;;;;;;;10.62;100.00;101916.03;5053603;28;20021;-73
2022/09/11 06:08:03;;;;;;;40.75;27.13;;;;;;;10.60;100.00;101910.84;5053752;28;20021;-73
2022/09/11 06:10:28;;;;;;;41.33;26.40;;;;;;;10.65;100.00;101921.25;5052647;28;20033;-73
2022/09/11 06:12:53;;;;;;;36.58;25.77;;;;;;;10.70;100.00;101927.31;5053455;28;20087;-73
2022/09/11 06:15:19;;;;;;;41.83;27.80;;;;;;;10.76;100.00;101928.13;5052964;28;20052;-73
2022/09/11 06:17:44;;;;;;;41.75;27.85;;;;;;;10.83;100.00;101928.09;5052929;28;20381;-73
2022/09/11 06:20:11;;;;;;;48.55;29.13;;;;;;;10.87;100.00;101922.81;5053471;28;20024;-73
2022/09/11 06:22:37;;;;;;;72.80;31.05;;;;;;;10.96;100.00;101929.72;5053050;28;20113;-73
2022/09/11 06:25:02;;;;;;;77.25;31.60;;;;;;;11.00;100.00;101932.28;5052685;28;20104;-73
2022/09/11 06:27:28;;;;;;;78.53;30.20;;;;;;;11.00;100.00;101937.50;5052721;28;20033;-73
2022/09/11 06:29:54;;;;;;;66.85;28.73;;;;;;;10.98;100.00;101946.22;5053040;28;20108;-73
2022/09/11 06:32:19;;;;;;;70.03;30.20;;;;;;;11.07;100.00;101945.28;5052224;28;20052;-73
2022/09/11 06:34:45;;;;;;;70.35;30.27;;;;;;;11.12;100.00;101946.13;5053185;28;20060;-73
2022/09/11 06:37:11;;;;;;;62.70;30.30;;;;;;;11.17;100.00;101950.41;5053157;28;20052;-73
2022/09/11 06:39:36;;;;;;;94.38;31.70;;;;;;;11.20;100.00;101957.34;5052014;28;20044;-73
2022/09/11 06:42:02;;;;;;;52.45;29.17;;;;;;;11.31;100.00;101950.28;5053110;28;20448;-73
2022/09/11 06:44:27;;;;;;;53.67;30.63;;;;;;;11.43;100.00;101954.56;5052398;28;20048;-73
2022/09/11 06:46:52;;;;;;;87.63;30.27;;;;;;;11.44;100.00;101954.56;5052320;28;20017;-73
2022/09/11 06:49:18;;;;;;;64.18;30.25;;;;;;;11.55;100.00;101950.97;5052754;28;20052;-73
2022/09/11 06:51:43;;;;;;;85.35;30.67;;;;;;;11.61;100.00;101951.78;5052313;28;20069;-73
2022/09/11 06:54:10;;;;;;;68.57;30.95;;;;;;;11.70;100.00;101958.63;5052838;28;20048;-73
2022/09/11 06:56:35;;;;;;;55.75;31.10;;;;;;;11.77;100.00;101956.81;5052795;28;20033;-73
2022/09/11 06:59:01;;;;;;;65.40;30.75;;;;;;;11.87;100.00;101961.09;5051989;28;20036;-74
2022/09/11 07:01:27;;;;;;;68.55;29.20;;;;;;;11.93;100.00;101951.47;5052343;28;20036;-73
2022/09/11 07:03:53;;;;;;;88.10;28.77;;;;;;;11.93;100.00;101959.31;5052887;28;20064;-73
2022/09/11 07:06:23;;;;;;;112.63;29.58;;;;;;;11.90;100.00;101956.72;5051740;28;20025;-73
2022/09/11 07:08:55;;;;;;;70.85;28.48;;;;;;;11.94;100.00;101950.56;5052754;28;20033;-73
2022/09/11 07:11:21;;;;;;;54.17;29.20;;;;;;;12.10;100.00;101959.09;5052284;28;20087;-73
2022/09/11 07:13:47;;;;;;;181.55;31.08;;;;;;;12.12;100.00;101964.28;5051770;28;20120;-73
2022/09/11 07:16:12;;;;;;;153.50;28.92;;;;;;;12.19;100.00;101961.56;5052516;28;20094;-73
2022/09/11 07:18:40;;;;;;;93.75;28.05;;;;;;;12.30;100.00;101953.63;5052091;28;20227;-73
2022/09/11 07:21:07;;;;;;;102.70;30.05;;;;;;;12.34;100.00;101960.53;5051953;28;20029;-73
2022/09/11 07:23:33;;;;;;;70.72;29.58;;;;;;;12.49;100.00;101950.75;5052245;28;20032;-73
2022/09/11 07:26:05;;;;;;;93.60;29.65;;;;;;;12.55;100.00;101948.03;5052479;28;20104;-73
2022/09/11 07:28:30;;;;;;;89.43;29.75;;;;;;;12.58;100.00;101948.00;5051366;28;20025;-73
2022/09/11 07:31:03;;;;;;;79.18;28.33;;;;;;;12.69;100.00;101955.69;5052510;28;20036;-73
2022/09/11 07:33:28;;;;;;;58.97;28.45;;;;;;;12.73;100.00;101953.03;5052323;28;20060;-73
2022/09/11 07:35:54;;;;;;;55.95;27.10;;;;;;;12.83;100.00;101953.75;5051647;28;20060;-73
2022/09/11 07:38:19;;;;;;;68.90;27.77;;;;;;;12.89;100.00;101953.66;5052207;28;20025;-73
2022/09/11 07:40:45;;;;;;;50.70;28.17;;;;;;;12.97;100.00;101950.91;5054463;28;20465;-73
2022/09/11 07:43:12;;;;;;;57.45;28.98;;;;;;;13.10;100.00;101948.06;5055454;28;20416;-73
2022/09/11 07:45:37;;;;;;;91.85;27.48;;;;;;;13.18;100.00;101955.81;5055934;28;20052;-73
2022/09/11 07:48:03;;;;;;;48.63;26.27;;;;;;;13.30;100.00;101946.91;5055623;28;20082;-73
2022/09/11 07:50:28;;;;;;;46.15;27.30;;;;;;;13.43;100.00;101950.19;5055905;28;20100;-73
2022/09/11 07:52:53;;;;;;;49.20;27.08;;;;;;;13.56;100.00;101951.69;5056178;28;20025;-73
2022/09/11 07:55:19;;;;;;;64.97;28.98;;;;;;;13.70;100.00;101949.69;5054876;28;20021;-73
2022/09/11 07:57:45;;;;;;;62.60;26.75;;;;;;;13.74;100.00;101946.13;5056293;28;20473;-73
2022/09/11 08:00:11;;;;;;;62.17;27.92;;;;;;;13.86;100.00;101954.63;5056003;28;20528;-73
2022/09/11 08:02:37;;;;;;;65.93;26.83;;;;;;;13.95;100.00;101960.56;5054811;28;20108;-73
2022/09/11 08:05:03;;;;;;;75.80;25.67;;;;;;;13.86;100.00;101957.25;5055914;28;20025;-73
2022/09/11 08:07:29;;;;;;;92.63;26.67;;;;;;;13.86;100.00;101962.50;5055612;28;20151;-73
2022/09/11 08:09:55;;;;;;;66.53;25.83;;;;;;;13.79;100.00;101962.59;5055040;28;20025;-73
2022/09/11 08:12:22;;;;;;;41.22;26.52;;;;;;;13.79;100.00;101965.22;5055816;28;20027;-73
2022/09/11 08:14:47;;;;;;;50.25;27.25;;;;;;;13.86;100.00;101962.50;5055599;28;20024;-73
2022/09/11 08:17:13;;;;;;;46.97;28.00;;;;;;;14.11;100.00;101976.84;5055177;28;20028;-73
2022/09/11 08:19:38;;;;;;;55.05;30.02;;;;;;;14.32;100.00;101966.81;5055587;28;20032;-73
2022/09/11 08:22:03;;;;;;;48.75;29.05;;;;;;;14.38;100.00;101971.94;5055673;28;20461;-73
2022/09/11 08:24:29;;;;;;;47.42;28.75;;;;;;;14.48;100.00;101976.06;5054580;28;20021;-73
2022/09/11 08:26:55;;;;;;;44.42;27.80;;;;;;;14.57;100.00;101991.66;5055683;28;20033;-73
2022/09/11 08:29:21;;;;;;;48.75;30.50;;;;;;;14.60;100.00;101988.09;5055354;28;20028;-73
2022/09/11 08:31:46;;;;;;;46.42;28.83;;;;;;;14.62;100.00;101984.56;5054775;28;20037;-74
2022/09/11 08:34:11;;;;;;;44.80;28.83;;;;;;;14.64;100.00;101985.38;5055428;28;20047;-73
2022/09/11 08:36:37;;;;;;;43.55;28.73;;;;;;;14.63;100.00;101988.91;5055632;28;20028;-73
2022/09/11 08:39:03;;;;;;;51.08;31.48;;;;;;;14.68;100.00;101989.69;5054466;28;20029;-73
2022/09/11 08:41:40;;;;;;;47.63;29.95;;;;;;;14.78;100.00;101986.81;5055142;28;20029;-73
2022/09/11 08:44:08;;;;;;;47.78;30.15;;;;;;;14.80;100.00;101985.03;5054980;28;20111;-73
2022/09/11 08:46:43;;;;;;;53.47;32.38;;;;;;;14.95;100.00;101988.16;5054559;28;20527;-73
2022/09/11 08:49:09;;;;;;;51.95;32.70;;;;;;;15.11;100.00;101996.56;5055161;28;20377;-73
2022/09/11 08:51:35;;;;;;;51.07;33.03;;;;;;;15.37;100.00;101995.06;5052687;28;20177;-73
2022/09/11 08:54:01;;;;;;;53.00;33.95;;;;;;;15.51;100.00;101992.94;5054968;28;20025;-73
2022/09/11 08:56:29;;;;;;;45.28;30.65;;;;;;;15.57;100.00;101995.41;5054652;28;20496;-73
2022/09/11 08:59:03;;;;;;;52.63;32.55;;;;;;;15.68;100.00;101990.75;5054326;28;20079;-73
2022/09/11 09:01:45;;;;;;;49.90;31.58;;;;;;;15.75;100.00;101995.84;5054696;28;20078;-73
2022/09/11 09:04:32;;;;;;;47.63;32.42;;;;;;;15.83;100.00;102000.00;5054843;28;20029;-73
2022/09/11 09:07:27;;;;;;;47.75;30.02;;;;;;;15.88;100.00;101986.72;5054357;28;20035;-73
2022/09/11 09:09:59;;;;;;;42.22;29.23;;;;;;;15.87;100.00;101988.50;5058251;28;20467;-73
2022/09/11 09:12:57;;;;;;;45.50;30.48;;;;;;;15.74;100.00;101996.75;5053617;28;20068;-73
2022/09/11 09:15:34;;;;;;;42.90;29.55;;;;;;;15.52;100.00;102005.16;5055391;28;20120;-73
2022/09/11 09:18:35;;;;;;;45.53;30.55;;;;;;;15.53;100.00;102006.03;5054530;28;20424;-73
2022/09/11 09:21:09;;;;;;;48.85;32.33;;;;;;;15.71;100.00;102007.34;5071466;28;20545;-73
2022/09/11 09:23:43;;;;;;;50.95;33.10;;;;;;;16.04;100.00;102016.09;5057172;28;20041;-73
2022/09/11 09:26:17;;;;;;;45.20;30.75;;;;;;;16.28;100.00;102006.66;5054510;28;20029;-73
2022/09/11 09:28:46;;;;;;;45.40;31.92;;;;;;;16.46;100.00;102011.38;5053804;28;20021;-73
2022/09/11 09:31:16;;;;;;;44.63;30.42;;;;;;;16.63;100.00;102002.97;5054101;28;20040;-73
2022/09/11 09:34:08;;;;;;;41.90;30.17;;;;;;;16.76;100.00;101995.59;5053679;28;20068;-73
2022/09/11 09:36:45;;;;;;;40.00;29.13;;;;;;;16.80;100.00;102005.13;5055933;28;20040;-73
2022/09/11 09:39:15;;;;;;;38.00;27.55;;;;;;;16.99;100.00;102000.16;5054179;28;20138;-73
2022/09/11 09:41:59;;;;;;;40.65;27.63;;;;;;;17.20;100.00;102007.38;5053245;28;20032;-73
2022/09/11 09:44:49;;;;;;;35.47;26.80;;;;;;;17.40;100.00;102004.06;5053627;28;20122;-73
2022/09/11 09:47:14;;;;;;;29.65;23.73;;;;;;;17.38;100.00;102008.53;5054237;28;20036;-73
2022/09/11 09:49:40;;;;;;;36.42;26.17;;;;;;;17.38;100.00;102011.16;5052673;28;20017;-73
2022/09/11 09:52:19;;;;;;;28.50;23.25;;;;;;;17.36;100.00;102006.84;5053994;28;20028;-74
2022/09/11 09:54:55;;;;;;;29.92;24.58;;;;;;;17.38;100.00;102007.66;5053286;28;20024;-73
2022/09/11 09:57:25;;;;;;;30.10;24.52;;;;;;;17.26;100.00;102003.66;5053644;28;20108;-73
2022/09/11 10:00:04;;;;;;;26.63;21.50;;;;;;;17.13;100.00;101999.69;5054054;28;20054;-73
2022/09/11 10:02:40;;;;;;;28.60;22.85;;;;;;;17.06;100.00;102007.78;5052476;28;20033;-73
2022/09/11 10:05:30;;;;;;;27.52;21.50;;;;;;;16.91;100.00;102010.06;5053568;28;20495;-73
2022/09/11 10:07:59;;;;;;;28.50;22.38;;;;;;;16.69;100.00;102008.06;5053759;28;20053;-73
2022/09/11 10:10:30;;;;;;;27.95;21.73;;;;;;;16.71;100.00;102008.00;5052480;28;20460;-73
2022/09/11 10:13:07;;;;;;;30.08;23.80;;;;;;;16.82;100.00;102009.44;5053450;28;20465;-73
2022/09/11 10:15:37;;;;;;;30.45;23.92;;;;;;;16.96;100.00;102016.03;5053317;28;20021;-73
2022/09/11 10:18:21;;;;;;;29.55;23.40;;;;;;;17.20;100.00;102014.38;5053386;28;20021;-73
2022/09/11 10:20:47;;;;;;;30.80;23.63;;;;;;;17.47;100.00;102007.38;5053315;28;20029;-73
2022/09/11 10:23:26;;;;;;;29.15;22.52;;;;;;;17.83;100.00;102009.69;5052531;28;20108;-73
2022/09/11 10:25:52;;;;;;;28.35;23.10;;;;;;;18.16;100.00;102008.47;5053491;28;20035;-73
2022/09/11 10:28:27;;;;;;;27.40;22.50;;;;;;;18.48;100.00;102009.03;5052809;28;20468;-73
2022/09/11 10:31:01;;;;;;;25.55;20.58;;;;;;;18.45;100.00;102002.09;5052485;28;20079;-73
2022/09/11 10:33:40;;;;;;;24.83;20.20;;;;;;;18.21;100.00;101997.72;5052883;28;20036;-73
2022/09/11 10:36:08;;;;;;;25.35;21.05;;;;;;;18.08;100.00;102001.72;5053366;28;20108;-73
2022/09/11 10:38:43;;;;;;;24.27;21.48;;;;;;;18.14;100.00;102009.44;5052192;28;20362;-73
2022/09/11 10:41:18;;;;;;;28.23;21.73;;;;;;;18.08;100.00;102005.22;5052975;28;20370;-73
2022/09/11 10:43:59;;;;;;;25.85;22.35;;;;;;;18.45;100.00;102010.03;5052168;28;20037;-73
2022/09/11 10:46:31;;;;;;;26.00;22.02;;;;;;;18.78;100.00;102006.16;5052660;28;20052;-73
2022/09/11 10:49:05;;;;;;;22.08;19.38;;;;;;;18.98;100.00;102002.72;5053052;28;20384;-73
2022/09/11 10:51:33;;;;;;;21.15;18.42;;;;;;;19.15;100.00;101998.47;5052299;28;20032;-73
2022/09/11 10:54:36;;;;;;;19.40;17.27;;;;;;;19.28;100.00;101997.97;5052806;28;20021;-73
2022/09/11 10:57:25;;;;;;;19.77;17.67;;;;;;;19.21;100.00;102005.28;5052998;28;20029;-73
2022/09/11 11:00:05;;;;;;;21.40;18.02;;;;;;;19.56;100.00;102006.47;5052127;28;20112;-73
2022/09/11 11:02:35;;;;;;;20.70;18.48;;;;;;;19.92;100.00;102002.34;5052503;28;20029;-73
2022/09/11 11:05:04;;;;;;;18.92;14.75;;;;;;;20.25;99.85;102005.25;5052001;28;20108;-73
2022/09/11 11:07:56;;;;;;;16.70;14.10;;;;;;;20.48;100.00;101996.22;5052606;28;20044;-73
2022/09/11 11:10:34;;;;;;;15.57;12.57;;;;;;;20.66;90.04;101995.38;5052384;28;20056;-73
2022/09/11 11:13:14;;;;;;;13.35;11.95;;;;;;;20.83;93.44;101996.38;5051942;28;20056;-73
2022/09/11 11:15:44;;;;;;;13.93;12.30;;;;;;;20.97;93.21;102001.88;5051704;28;20456;-73